Time;durP1;ratioP1;P1;durP2;ratioP2;P2;SDS_P1;SDS_P2;PMS_P1;PMS_P2;Temp;Humidity;BMP_temperature;BMP_pressure;BME280_temperature;BME280_humidity;BME280_pressure;Samples;Min_cycle;Max_cycle;Signal;HPM_P1;HPM_P2
2022/12/10 00:01:32;;;;;;;21.00;7.90;;;;;;;-2.86;96.69;100787.50;5053125;28;20019;-82
2022/12/10 00:03:58;;;;;;;;;;;;;;;-2.89;96.77;100793.34;5053372;28;20025;-81
2022/12/10 00:06:27;;;;;;;20.27;7.40;;;;;;;-2.89;96.66;100797.53;5051375;28;19967;-82
2022/12/10 00:08:52;;;;;;;20.98;7.93;;;;;;;-2.90;96.92;100790.72;5052628;28;20438;-82
2022/12/10 00:11:19;;;;;;;19.70;7.35;;;;;;;-2.91;96.72;100797.47;5052485;28;20124;-81
2022/12/10 00:13:46;;;;;;;22.13;7.97;;;;;;;-2.93;96.87;100795.69;5052038;28;20021;-81
2022/12/10 00:16:13;;;;;;;20.77;7.93;;;;;;;-2.92;97.05;100800.81;5052102;28;20029;-81
2022/12/10 00:18:51;;;;;;;;;;;;;;;-2.91;97.11;100805.09;5052150;28;20060;-81
2022/12/10 00:21:25;;;;;;;20.63;7.30;;;;;;;-2.92;96.94;100810.09;5051916;28;19913;-82
2022/12/10 00:23:51;;;;;;;20.45;7.40;;;;;;;-2.96;96.48;100806.59;5052740;28;20033;-81
2022/12/10 00:26:37;;;;;;;19.77;7.23;;;;;;;-2.96;96.53;100804.03;5051525;28;20025;-81
2022/12/10 00:29:04;;;;;;;19.77;7.47;;;;;;;-2.97;96.35;100808.25;5052134;28;20300;-81
2022/12/10 00:31:32;;;;;;;20.73;8.05;;;;;;;-2.96;96.91;100801.50;5052322;28;20029;-81
2022/12/10 00:34:00;;;;;;;19.17;7.30;;;;;;;-2.96;96.72;100798.97;5051808;28;20017;-81
2022/12/10 00:36:31;;;;;;;18.75;6.55;;;;;;;-3.00;96.74;100807.28;5052272;28;20075;-81
2022/12/10 00:38:57;;;;;;;18.20;6.40;;;;;;;-3.00;97.02;100814.91;5052746;28;20374;-81
2022/12/10 00:41:22;;;;;;;17.63;6.18;;;;;;;-3.00;97.05;100814.91;5051602;28;20020;-81
2022/12/10 00:43:48;;;;;;;20.20;7.63;;;;;;;-2.97;97.19;100809.91;5052042;28;20058;-81
2022/12/10 00:46:15;;;;;;;21.35;7.40;;;;;;;-2.98;97.23;100800.56;5052099;28;20067;-81
2022/12/10 00:48:42;;;;;;;21.23;8.07;;;;;;;-2.98;96.97;100798.91;5051584;28;20381;-81
2022/12/10 00:51:16;;;;;;;20.52;7.80;;;;;;;-2.99;97.19;100804.78;5052226;28;20029;-81
2022/12/10 00:53:43;;;;;;;20.20;7.32;;;;;;;-3.00;96.85;100799.66;5052168;28;20029;-81
2022/12/10 00:56:11;;;;;;;19.10;7.22;;;;;;;-3.01;96.75;100798.78;5054401;28;20033;-81
2022/12/10 00:58:37;;;;;;;20.45;7.50;;;;;;;-3.02;97.22;100799.59;5056175;28;20021;-81
2022/12/10 01:01:20;;;;;;;20.33;7.60;;;;;;;-3.01;97.15;100791.16;5054717;28;20021;-81
2022/12/10 01:03:48;;;;;;;20.33;7.60;;;;;;;-3.02;97.06;100789.44;5056084;28;20476;-81
2022/12/10 01:06:17;;;;;;;20.85;7.72;;;;;;;-3.04;96.83;100785.97;5055622;28;20029;-81
2022/12/10 01:08:43;;;;;;;22.20;7.82;;;;;;;-3.03;97.09;100787.69;5055309;28;20036;-81
2022/12/10 01:11:10;;;;;;;20.95;7.72;;;;;;;-3.04;97.24;100788.50;5055122;28;20029;-81
2022/12/10 01:13:36;;;;;;;21.33;7.95;;;;;;;-3.05;97.19;100788.44;5055847;28;20029;-81
2022/12/10 01:16:04;;;;;;;21.52;8.05;;;;;;;-3.07;96.95;100793.47;5055229;28;20035;-81
2022/12/10 01:18:30;;;;;;;21.60;7.78;;;;;;;-3.09;96.95;100795.09;5055599;28;20071;-81
2022/12/10 01:20:59;;;;;;;23.00;8.98;;;;;;;-3.15;96.80;100799.91;5055796;28;20021;-81
2022/12/10 01:23:24;;;;;;;24.13;9.68;;;;;;;-3.23;97.21;100802.16;5054604;28;20477;-81
2022/12/10 01:25:50;;;;;;;23.40;9.55;;;;;;;-3.24;96.81;100802.97;5055462;28;20064;-81
2022/12/10 01:28:15;;;;;;;24.40;9.43;;;;;;;-3.24;97.23;100812.22;5055197;28;20021;-81
2022/12/10 01:30:40;;;;;;;22.08;8.55;;;;;;;-3.24;96.93;100805.50;5054562;28;20105;-81
2022/12/10 01:33:06;;;;;;;22.77;9.40;;;;;;;-3.21;96.85;100814.91;5054676;28;20075;-81
2022/12/10 01:35:31;;;;;;;22.73;9.45;;;;;;;-3.19;97.45;100808.22;5055294;28;20025;-81
2022/12/10 01:37:56;;;;;;;23.25;9.13;;;;;;;-3.21;97.09;100823.41;5054046;28;20028;-81
2022/12/10 01:40:22;;;;;;;22.60;8.88;;;;;;;-3.22;96.68;100825.84;5055008;28;20115;-81
2022/12/10 01:42:47;;;;;;;21.75;8.40;;;;;;;-3.26;96.97;100815.56;5055025;28;20037;-81
2022/12/10 01:45:13;;;;;;;21.90;8.65;;;;;;;-3.26;96.94;100818.09;5080198;22;20083;-81
2022/12/10 01:47:38;;;;;;;21.35;8.13;;;;;;;-3.26;97.04;100812.19;5095320;28;20028;-81
2022/12/10 01:50:07;;;;;;;20.05;7.15;;;;;;;-3.26;97.10;100819.78;5106883;28;20028;-81
2022/12/10 01:52:32;;;;;;;19.33;7.22;;;;;;;-3.27;97.10;100816.41;5115620;28;20032;-81
2022/12/10 01:54:58;;;;;;;20.30;7.68;;;;;;;-3.27;97.25;100818.06;5115440;28;20034;-81
2022/12/10 01:57:26;;;;;;;20.67;7.65;;;;;;;-3.24;97.20;100819.84;5114726;28;20032;-81
2022/12/10 01:59:58;;;;;;;22.38;8.27;;;;;;;-3.24;97.37;100818.19;5115749;28;20051;-81
2022/12/10 02:02:30;;;;;;;22.65;8.60;;;;;;;-3.20;97.59;100821.72;5115446;28;20031;-81
2022/12/10 02:05:16;;;;;;;20.85;8.35;;;;;;;-3.16;97.26;100821.91;5114720;28;20028;-81
2022/12/10 02:08:05;;;;;;;21.52;8.25;;;;;;;-3.14;97.21;100821.94;5115002;28;20035;-81
2022/12/10 02:10:43;;;;;;;20.75;7.47;;;;;;;-3.14;97.77;100822.84;5115296;28;20388;-80
2022/12/10 02:13:17;;;;;;;20.02;7.65;;;;;;;-3.14;97.49;100825.38;5073374;28;20032;-81
2022/12/10 02:15:52;;;;;;;21.00;7.47;;;;;;;-3.12;97.67;100823.78;5074157;28;20423;-81
2022/12/10 02:18:31;;;;;;;18.83;6.97;;;;;;;-3.10;97.74;100819.59;5083033;28;20015;-81
2022/12/10 02:21:02;;;;;;;19.20;6.80;;;;;;;-3.06;97.66;100819.72;5111118;28;20023;-81
2022/12/10 02:23:35;;;;;;;21.27;7.63;;;;;;;-3.05;97.88;100813.84;5114710;28;20464;-81
2022/12/10 02:26:10;;;;;;;18.80;6.68;;;;;;;-3.04;97.61;100813.88;5114306;28;20432;-81
2022/12/10 02:28:42;;;;;;;21.42;8.40;;;;;;;-3.05;97.89;100807.09;5115044;28;20137;-81
2022/12/10 02:31:11;;;;;;;21.15;7.30;;;;;;;-3.06;98.40;100820.59;5114432;28;20035;-81
2022/12/10 02:33:42;;;;;;;21.73;8.23;;;;;;;-3.06;98.34;100824.81;5114373;28;20023;-81
2022/12/10 02:36:10;;;;;;;21.08;7.75;;;;;;;-3.06;98.41;100827.34;5114881;28;20019;-81
2022/12/10 02:38:42;;;;;;;20.52;7.25;;;;;;;-3.06;98.08;100820.59;5114752;28;20019;-81
2022/12/10 02:41:15;;;;;;;19.08;6.40;;;;;;;-3.03;98.42;100820.69;5113968;28;20103;-81
2022/12/10 02:43:41;;;;;;;18.52;6.32;;;;;;;-3.03;98.31;100818.16;5114390;28;20071;-81
2022/12/10 02:46:07;;;;;;;18.45;6.20;;;;;;;-3.03;98.48;100817.31;5114525;28;20028;-81
2022/12/10 02:48:35;;;;;;;18.42;6.53;;;;;;;-3.02;98.61;100817.38;5113214;28;20035;-81
2022/12/10 02:51:00;;;;;;;16.33;5.70;;;;;;;-3.00;98.42;100809.81;5114210;28;20554;-81
2022/12/10 02:53:26;;;;;;;20.60;7.05;;;;;;;-3.02;98.71;100816.50;5113439;28;20106;-81
2022/12/10 02:56:13;;;;;;;20.33;7.75;;;;;;;-3.01;98.82;100823.31;5103644;28;20020;-81
2022/12/10 02:59:26;;;;;;;21.50;7.38;;;;;;;-2.98;98.81;100820.88;5114138;28;20372;-81
2022/12/10 03:02:06;;;;;;;19.25;7.15;;;;;;;-2.92;98.58;100827.88;5094141;28;20035;-81
2022/12/10 03:04:42;;;;;;;21.25;7.60;;;;;;;-2.92;98.80;100822.81;5114545;28;20348;-81
2022/12/10 03:07:15;;;;;;;20.70;7.53;;;;;;;-2.93;98.96;100829.56;5113699;28;20032;-81
2022/12/10 03:09:51;;;;;;;20.85;7.40;;;;;;;-2.95;99.03;100826.97;5113509;28;20468;-81
2022/12/10 03:12:47;;;;;;;22.20;8.27;;;;;;;-2.94;98.40;100825.28;5113676;28;20015;-81
2022/12/10 03:15:14;;;;;;;18.88;6.75;;;;;;;-2.93;98.59;100821.94;5113079;28;20051;-81
2022/12/10 03:17:42;;;;;;;19.63;6.90;;;;;;;-2.90;98.65;100827.16;5113515;28;20020;-81
2022/12/10 03:20:12;;;;;;;19.88;6.70;;;;;;;-2.87;98.93;100824.72;5094135;28;20042;-81
2022/12/10 03:22:40;;;;;;;19.75;6.90;;;;;;;-2.85;98.90;100822.25;5092823;28;20392;-81
2022/12/10 03:25:08;;;;;;;20.13;7.25;;;;;;;-2.83;99.17;100823.19;5093231;28;20061;-81
2022/12/10 03:27:36;;;;;;;21.23;7.65;;;;;;;-2.85;98.91;100817.16;5093430;28;20028;-81
2022/12/10 03:30:02;;;;;;;19.77;6.45;;;;;;;-2.83;99.10;100823.19;5093072;28;20028;-81
2022/12/10 03:32:29;;;;;;;20.77;7.53;;;;;;;-2.80;99.24;100821.63;5093582;28;20384;-81
2022/12/10 03:34:57;;;;;;;19.83;6.60;;;;;;;-2.78;99.18;100815.75;5093019;28;20016;-81
2022/12/10 03:37:25;;;;;;;17.90;6.05;;;;;;;-2.75;99.36;100823.47;5092096;28;20114;-81
2022/12/10 03:39:50;;;;;;;17.88;6.25;;;;;;;-2.74;99.23;100817.56;5092387;28;20031;-81
2022/12/10 03:42:16;;;;;;;19.52;6.78;;;;;;;-2.75;99.10;100829.41;5093118;28;20020;-81
2022/12/10 03:44:41;;;;;;;18.83;6.50;;;;;;;-2.73;99.13;100825.28;5091682;28;20071;-81
2022/12/10 03:47:10;;;;;;;20.13;6.88;;;;;;;-2.70;99.13;100829.59;5092925;28;20484;-81
2022/12/10 03:49:35;;;;;;;21.05;7.55;;;;;;;-2.71;99.52;100827.84;5106049;28;20115;-81
2022/12/10 03:52:00;;;;;;;21.77;7.70;;;;;;;-2.74;99.25;100831.16;5113409;28;20438;-81
2022/12/10 03:54:26;;;;;;;20.70;7.15;;;;;;;-2.72;99.38;100844.78;5113390;28;20435;-81
2022/12/10 03:56:51;;;;;;;19.65;7.00;;;;;;;-2.71;99.36;100833.81;5112758;28;20377;-81
2022/12/10 03:59:17;;;;;;;19.55;6.32;;;;;;;-2.68;99.35;100841.53;5112999;28;20418;-81
2022/12/10 04:01:42;;;;;;;19.15;7.00;;;;;;;-2.67;99.70;100842.44;5113190;28;20034;-80
2022/12/10 04:04:08;;;;;;;19.88;7.35;;;;;;;-2.67;99.66;100844.97;5112220;28;20019;-81
2022/12/10 04:06:33;;;;;;;21.80;8.38;;;;;;;-2.68;99.93;100836.47;5113504;28;20020;-81
2022/12/10 04:08:59;;;;;;;22.98;8.65;;;;;;;-2.71;100.00;100838.91;5113614;28;20024;-81
2022/12/10 04:11:25;;;;;;;22.00;7.50;;;;;;;-2.71;99.78;100838.91;5112388;28;20495;-82
2022/12/10 04:16:51;;;;;;;20.75;7.13;;;;;;;-2.69;99.77;100838.94;5050509;28;20123;-81
2022/12/10 04:19:17;;;;;;;21.23;6.85;;;;;;;-2.68;99.49;100841.53;5098258;28;20432;-81
2022/12/10 04:27:20;;;;;;;21.05;7.60;;;;;;;-2.64;100.00;100840.88;5113040;28;20038;-81
2022/12/10 04:29:46;;;;;;;23.05;8.55;;;;;;;-2.64;99.64;100834.91;5115307;28;20032;-81
2022/12/10 04:32:11;;;;;;;22.17;8.30;;;;;;;-2.63;99.73;100841.72;5115639;28;20034;-81
2022/12/10 04:34:36;;;;;;;21.60;7.88;;;;;;;-2.62;100.00;100838.38;5117065;28;20110;-81
2022/12/10 04:37:03;;;;;;;23.17;8.32;;;;;;;-2.61;99.76;100857.03;5117103;28;20028;-81
2022/12/10 04:39:29;;;;;;;23.60;8.52;;;;;;;-2.62;99.80;100842.59;5116438;28;20034;-81
2022/12/10 04:41:54;;;;;;;23.13;8.77;;;;;;;-2.63;100.00;100851.88;5117016;28;20027;-81
2022/12/10 04:44:20;;;;;;;23.92;8.88;;;;;;;-2.61;100.00;100850.28;5116847;28;20044;-81
2022/12/10 04:46:46;;;;;;;27.00;10.43;;;;;;;-2.61;100.00;100849.41;5116260;28;20031;-81
2022/12/10 04:49:11;;;;;;;26.50;10.00;;;;;;;-2.65;100.00;100850.97;5116001;28;20387;-81
2022/12/10 04:51:37;;;;;;;26.33;9.98;;;;;;;-2.59;99.79;100848.66;5117154;28;20024;-81
2022/12/10 04:54:03;;;;;;;28.10;11.27;;;;;;;-2.67;99.69;100850.06;5116003;28;20020;-80
2022/12/10 04:56:29;;;;;;;27.95;11.00;;;;;;;-2.68;100.00;100851.72;5096922;28;20431;-81
2022/12/10 04:58:56;;;;;;;26.30;10.00;;;;;;;-2.68;100.00;100853.41;5096755;28;20032;-81
2022/12/10 05:01:22;;;;;;;25.90;9.52;;;;;;;-2.65;100.00;100859.47;5095326;28;20031;-81
2022/12/10 05:03:47;;;;;;;24.00;9.48;;;;;;;-2.64;100.00;100856.13;5096026;28;20024;-81
2022/12/10 05:06:15;;;;;;;23.98;8.75;;;;;;;-2.60;100.00;100857.09;5095738;28;20468;-81
2022/12/10 05:08:40;;;;;;;22.40;7.60;;;;;;;-2.62;100.00;100861.25;5095653;28;20040;-81
2022/12/10 05:11:10;;;;;;;20.83;7.50;;;;;;;-2.59;100.00;100856.28;5095729;28;20544;-81
2022/12/10 05:13:35;;;;;;;20.00;6.88;;;;;;;-2.58;100.00;100859.69;5096520;28;20101;-81
2022/12/10 05:16:02;;;;;;;19.75;6.38;;;;;;;-2.56;100.00;100864.03;5094837;28;20024;-81
2022/12/10 05:18:27;;;;;;;18.90;5.95;;;;;;;-2.55;100.00;100852.19;5096215;28;20024;-81
2022/12/10 05:20:52;;;;;;;19.10;5.95;;;;;;;-2.52;100.00;100858.25;5095964;28;20099;-81
2022/12/10 05:23:30;;;;;;;19.92;6.53;;;;;;;-2.49;100.00;100860.91;5094369;28;20373;-81
2022/12/10 05:25:58;;;;;;;21.50;7.43;;;;;;;-2.43;100.00;100864.50;5096162;28;20372;-81
2022/12/10 05:28:24;;;;;;;22.60;7.90;;;;;;;-2.41;100.00;100858.66;5094491;28;20070;-82
2022/12/10 05:30:50;;;;;;;24.02;8.32;;;;;;;-2.42;100.00;100859.47;5075360;28;20457;-81
2022/12/10 05:33:15;;;;;;;22.73;7.85;;;;;;;-2.43;100.00;100857.72;5074763;28;20032;-82
2022/12/10 05:35:40;;;;;;;22.95;7.90;;;;;;;-2.42;100.00;100864.56;5074421;28;20420;-82
2022/12/10 05:38:06;;;;;;;25.27;9.25;;;;;;;-2.43;100.00;100869.59;5075030;28;20542;-81
2022/12/10 05:40:36;;;;;;;24.38;8.23;;;;;;;-2.44;100.00;100857.69;5073987;28;20028;-81
2022/12/10 05:43:01;;;;;;;26.35;10.05;;;;;;;-2.46;100.00;100849.97;5076880;28;20075;-81
2022/12/10 05:45:27;;;;;;;27.52;10.35;;;;;;;-2.46;100.00;100857.59;5095127;28;20044;-81
2022/12/10 05:47:52;;;;;;;29.20;11.27;;;;;;;-2.45;100.00;100856.81;5095112;28;20028;-81
2022/12/10 05:50:17;;;;;;;26.70;10.30;;;;;;;-2.46;100.00;100852.53;5094195;28;20024;-81
2022/12/10 05:52:43;;;;;;;27.20;9.85;;;;;;;-2.45;100.00;100856.81;5095191;28;20101;-81
2022/12/10 05:55:08;;;;;;;28.80;9.90;;;;;;;-2.47;100.00;100858.41;5094893;28;20025;-81
2022/12/10 05:57:36;;;;;;;25.25;9.50;;;;;;;-2.46;100.00;100860.16;5094462;28;20028;-81
2022/12/10 06:00:04;;;;;;;29.25;10.98;;;;;;;-2.44;99.92;100868.72;5095087;28;20488;-81
2022/12/10 06:02:31;;;;;;;32.50;12.77;;;;;;;-2.50;100.00;100866.81;5095418;28;20388;-81
2022/12/10 06:04:57;;;;;;;32.65;12.25;;;;;;;-2.47;100.00;100875.34;5094283;28;20020;-81
2022/12/10 06:07:34;;;;;;;28.92;11.25;;;;;;;-2.47;100.00;100865.19;5093629;28;20476;-82
2022/12/10 06:10:00;;;;;;;27.20;10.60;;;;;;;-2.52;100.00;100863.31;5094794;28;20107;-81
2022/12/10 06:12:27;;;;;;;25.30;9.50;;;;;;;-2.48;100.00;100877.03;5093680;28;20107;-81
2022/12/10 06:14:53;;;;;;;26.83;9.73;;;;;;;-2.50;100.00;100874.44;5094956;28;20392;-82
2022/12/10 06:17:18;;;;;;;25.55;9.10;;;;;;;-2.48;100.00;100871.97;5093394;28;20024;-81
2022/12/10 06:19:43;;;;;;;24.15;8.40;;;;;;;-2.42;100.00;100876.41;5094383;28;20024;-81
2022/12/10 06:22:11;;;;;;;23.35;8.05;;;;;;;-2.43;100.00;100872.97;5088473;28;20070;-81
2022/12/10 06:24:41;;;;;;;22.38;7.75;;;;;;;-2.41;100.00;100870.50;5094025;28;20020;-81
2022/12/10 06:27:07;;;;;;;31.15;11.88;;;;;;;-2.41;100.00;100873.91;5094466;28;20423;-82
2022/12/10 06:29:50;;;;;;;33.22;12.73;;;;;;;-2.42;100.00;100867.09;5094183;28;20028;-82
2022/12/10 06:32:15;;;;;;;33.28;14.38;;;;;;;-2.38;99.53;100870.63;5092974;28;20399;-81
2022/12/10 06:34:41;;;;;;;35.75;14.20;;;;;;;-2.44;100.00;100867.84;5094287;28;20032;-81
2022/12/10 06:37:24;;;;;;;31.88;13.20;;;;;;;-2.45;100.00;100866.97;5094725;28;20372;-81
2022/12/10 06:39:52;;;;;;;31.65;12.75;;;;;;;-2.44;100.00;100875.47;5093492;28;20449;-81
2022/12/10 06:42:18;;;;;;;28.88;10.85;;;;;;;-2.43;100.00;100880.63;5094463;28;20468;-82
2022/12/10 06:44:43;;;;;;;28.80;11.30;;;;;;;-2.43;100.00;100885.69;5093876;28;20047;-81
2022/12/10 06:47:08;;;;;;;25.70;9.15;;;;;;;-2.43;100.00;100885.69;5092248;28;20039;-81
2022/12/10 06:49:34;;;;;;;24.50;8.50;;;;;;;-2.40;100.00;100892.56;5093720;28;20024;-81
2022/12/10 06:51:59;;;;;;;22.52;7.68;;;;;;;-2.38;100.00;100889.28;5093896;28;20024;-82
2022/12/10 06:54:25;;;;;;;24.80;8.80;;;;;;;-2.36;100.00;100892.72;5092535;28;20016;-82
2022/12/10 06:56:50;;;;;;;22.27;7.57;;;;;;;-2.36;100.00;100895.28;5093999;28;20396;-81
2022/12/10 06:59:15;;;;;;;25.35;9.15;;;;;;;-2.36;100.00;100897.81;5093391;28;20503;-81
2022/12/10 07:01:40;;;;;;;27.08;9.65;;;;;;;-2.38;100.00;100902.00;5100968;28;20020;-81
2022/12/10 07:04:06;;;;;;;29.67;10.50;;;;;;;-2.38;100.00;100902.00;5113772;28;20531;-81
2022/12/10 07:06:32;;;;;;;25.60;9.38;;;;;;;-2.37;100.00;100907.94;5113318;28;20028;-81
2022/12/10 07:08:57;;;;;;;25.88;9.07;;;;;;;-2.38;100.00;100904.53;5114263;28;20031;-82
2022/12/10 07:11:24;;;;;;;25.02;8.27;;;;;;;-2.36;100.00;100908.00;5113365;28;20391;-82
2022/12/10 07:13:50;;;;;;;23.02;7.85;;;;;;;-2.32;100.00;100911.53;5113489;28;20027;-81
2022/12/10 07:16:19;;;;;;;23.23;8.20;;;;;;;-2.29;100.00;100903.16;5113614;28;20020;-81
2022/12/10 07:18:44;;;;;;;24.05;8.52;;;;;;;-2.29;100.00;100906.56;5114142;28;20028;-81
2022/12/10 07:21:21;;;;;;;24.52;8.40;;;;;;;-2.30;100.00;100911.59;5112791;28;20084;-82
2022/12/10 07:23:47;;;;;;;23.70;7.68;;;;;;;-2.29;100.00;100908.25;5114151;28;20024;-82
2022/12/10 07:26:13;;;;;;;23.80;8.25;;;;;;;-2.28;100.00;100915.06;5133156;22;20050;-81
2022/12/10 07:28:38;;;;;;;21.73;7.53;;;;;;;-2.28;100.00;100917.59;5112293;28;20031;-81
2022/12/10 07:31:06;;;;;;;22.70;7.82;;;;;;;-2.29;100.00;100913.31;5112050;28;20035;-82
2022/12/10 07:33:32;;;;;;;24.80;8.95;;;;;;;-2.31;100.00;100917.47;5113951;28;20110;-81
2022/12/10 07:35:57;;;;;;;26.05;8.82;;;;;;;-2.30;100.00;100922.59;5112450;28;20103;-88
2022/12/10 07:38:25;;;;;;;25.67;8.55;;;;;;;-2.29;100.00;100926.03;5113335;28;20551;-82
2022/12/10 07:40:51;;;;;;;30.70;11.70;;;;;;;-2.29;100.00;100923.50;5113670;28;20102;-81
2022/12/10 07:43:17;;;;;;;31.15;11.68;;;;;;;-2.29;100.00;100924.34;5112637;28;20084;-81
2022/12/10 07:45:43;;;;;;;28.92;10.88;;;;;;;-2.26;100.00;100927.00;5113647;28;20027;-80
2022/12/10 07:48:08;;;;;;;28.70;10.15;;;;;;;-2.25;100.00;100925.34;5113154;28;20468;-81
2022/12/10 07:50:34;;;;;;;26.35;9.18;;;;;;;-2.25;100.00;100930.44;5112920;28;20026;-81
2022/12/10 07:52:59;;;;;;;26.00;9.32;;;;;;;-2.25;100.00;100928.75;5113498;28;20016;-81
2022/12/10 07:55:25;;;;;;;24.23;8.40;;;;;;;-2.25;100.00;100932.97;5112807;28;20019;-81
2022/12/10 07:57:50;;;;;;;27.25;9.75;;;;;;;-2.23;100.00;100931.34;5112436;28;20126;-81
2022/12/10 08:00:16;;;;;;;25.13;9.27;;;;;;;-2.22;100.00;100935.63;5113336;28;20020;-81
2022/12/10 08:02:41;;;;;;;25.55;9.20;;;;;;;-2.20;100.00;100939.97;5113571;28;20494;-81
2022/12/10 08:05:07;;;;;;;27.60;10.60;;;;;;;-2.19;100.00;100934.06;5111851;28;20052;-81
2022/12/10 08:07:32;;;;;;;26.10;8.88;;;;;;;-2.15;100.00;100941.81;5113321;28;20027;-81
2022/12/10 08:09:57;;;;;;;24.77;8.55;;;;;;;-2.14;100.00;100936.81;5112488;28;20043;-81
2022/12/10 08:12:31;;;;;;;23.20;8.27;;;;;;;-2.13;100.00;100938.50;5113181;28;20102;-81
2022/12/10 08:15:06;;;;;;;25.85;9.35;;;;;;;-2.16;100.00;100946.03;5113508;28;20015;-81
2022/12/10 08:17:35;;;;;;;25.55;8.73;;;;;;;-2.17;100.00;100949.41;5112423;28;20024;-81
2022/12/10 08:20:13;;;;;;;24.48;8.98;;;;;;;-2.16;100.00;100958.75;5113119;28;20472;-81
2022/12/10 08:22:39;;;;;;;24.30;8.27;;;;;;;-2.17;100.00;100957.88;5112899;28;20016;-83
2022/12/10 08:25:04;;;;;;;26.92;9.80;;;;;;;-2.12;100.00;100962.28;5112533;28;20040;-81
2022/12/10 08:27:29;;;;;;;28.92;10.20;;;;;;;-2.14;100.00;100962.25;5123208;28;20394;-81
2022/12/10 08:29:55;;;;;;;26.73;9.88;;;;;;;-2.13;100.00;100960.53;5133759;28;20019;-81
2022/12/10 08:32:20;;;;;;;27.23;9.80;;;;;;;-2.11;100.00;100964.88;5132764;28;20031;-80
2022/12/10 08:34:45;;;;;;;28.65;10.68;;;;;;;-2.12;100.00;100962.28;5132831;28;20118;-82
2022/12/10 08:37:11;;;;;;;24.65;8.80;;;;;;;-2.13;100.00;100970.72;5133098;28;20019;-82
2022/12/10 08:39:45;;;;;;;29.10;10.55;;;;;;;-2.13;100.00;100981.75;5133191;28;20051;-81
2022/12/10 08:42:11;;;;;;;30.92;11.52;;;;;;;-2.14;100.00;100972.41;5133633;28;20115;-81
2022/12/10 08:44:36;;;;;;;28.23;10.52;;;;;;;-2.14;100.00;100969.88;5133517;28;20102;-82
2022/12/10 08:47:04;;;;;;;28.35;10.40;;;;;;;-2.11;100.00;100981.81;5132696;28;20034;-81
2022/12/10 08:49:30;;;;;;;26.48;10.40;;;;;;;-2.13;100.00;100974.13;5133376;28;20030;-81
2022/12/10 08:51:55;;;;;;;27.45;10.38;;;;;;;-2.14;100.00;100980.03;5133569;28;20098;-81
2022/12/10 08:54:21;;;;;;;28.55;10.25;;;;;;;-2.12;100.00;100982.63;5132744;28;20034;-81
2022/12/10 08:57:01;;;;;;;26.70;9.60;;;;;;;-2.12;100.00;100980.94;5129084;28;20111;-81
2022/12/10 08:59:26;;;;;;;24.23;8.43;;;;;;;-2.08;100.00;100985.34;5111190;28;20062;-81
2022/12/10 09:01:52;;;;;;;24.17;8.95;;;;;;;-2.06;100.00;100993.03;5112913;28;20055;-81
2022/12/10 09:04:18;;;;;;;24.10;8.50;;;;;;;-2.05;100.00;100988.00;5112720;28;20104;-81
2022/12/10 09:06:43;;;;;;;22.48;7.95;;;;;;;-2.03;100.00;100988.91;5120119;28;20031;-81
2022/12/10 09:09:08;;;;;;;22.45;7.95;;;;;;;-2.03;100.00;100991.47;5132884;28;20023;-82
2022/12/10 09:11:34;;;;;;;21.40;7.15;;;;;;;-2.00;100.00;100988.19;5133284;28;20019;-81
2022/12/10 09:14:01;;;;;;;24.52;8.57;;;;;;;-1.97;100.00;100987.44;5132025;28;20041;-82
2022/12/10 09:16:35;;;;;;;30.20;11.07;;;;;;;-1.94;100.00;100988.41;5134026;27;20084;-81
2022/12/10 09:19:02;;;;;;;27.17;10.45;;;;;;;-1.97;100.00;100989.97;5137203;27;20019;-82
2022/12/10 09:21:30;;;;;;;24.90;9.05;;;;;;;-1.97;100.00;100989.97;5136302;27;20029;-82
2022/12/10 09:24:11;;;;;;;25.45;9.05;;;;;;;-1.95;100.00;100994.31;5136873;27;20031;-82
2022/12/10 09:26:36;;;;;;;25.35;9.13;;;;;;;-1.92;100.00;100994.44;5135138;27;20039;-82
2022/12/10 09:29:01;;;;;;;25.45;9.52;;;;;;;-1.95;100.00;100991.75;5135720;27;20096;-82
2022/12/10 09:31:39;;;;;;;24.23;8.85;;;;;;;-1.94;100.00;101003.69;5136420;27;20035;-82
2022/12/10 09:34:04;;;;;;;23.90;8.02;;;;;;;-1.90;100.00;101002.09;5125425;27;20475;-81
2022/12/10 09:36:29;;;;;;;21.80;7.03;;;;;;;-1.86;100.00;101006.50;5131218;27;20066;-81
2022/12/10 09:38:55;;;;;;;20.77;7.07;;;;;;;-1.82;100.00;101018.56;5136258;27;20027;-81
2022/12/10 09:41:47;;;;;;;21.33;7.13;;;;;;;-1.78;100.00;101015.28;5135226;27;20019;-81
2022/12/10 09:44:33;;;;;;;22.63;7.53;;;;;;;-1.77;100.00;101013.63;5136095;27;20023;-82
2022/12/10 09:47:03;;;;;;;19.52;6.35;;;;;;;-1.75;100.00;101017.13;5136575;27;20027;-81
2022/12/10 09:49:54;;;;;;;21.35;7.10;;;;;;;-1.75;100.00;101022.19;5135903;27;20023;-82
2022/12/10 09:52:23;;;;;;;22.08;7.38;;;;;;;-1.75;100.00;101017.97;5134405;27;20051;-81
2022/12/10 09:54:54;;;;;;;21.80;7.13;;;;;;;-1.73;100.00;101021.44;5136413;27;20023;-81
2022/12/10 09:57:27;;;;;;;19.00;6.40;;;;;;;-1.74;100.00;101022.25;5142068;27;20026;-81
2022/12/10 09:59:53;;;;;;;20.00;7.07;;;;;;;-1.71;100.00;101026.59;5136190;27;20348;-81
2022/12/10 10:02:25;;;;;;;20.50;6.38;;;;;;;-1.71;100.00;101030.00;5134690;27;20106;-81
2022/12/10 10:04:54;;;;;;;21.85;7.00;;;;;;;-1.69;100.00;101032.59;5135066;27;20027;-81
2022/12/10 10:07:23;;;;;;;21.60;7.10;;;;;;;-1.66;100.00;101029.28;5131746;27;20031;-82
2022/12/10 10:09:49;;;;;;;20.17;6.57;;;;;;;-1.63;100.00;101031.97;5135416;27;20018;-85
2022/12/10 10:12:16;;;;;;;19.60;6.18;;;;;;;-1.59;100.00;101031.28;5134896;27;20054;-83
2022/12/10 10:14:53;;;;;;;19.83;6.03;;;;;;;-1.57;100.00;101032.19;5135803;27;20027;-84
2022/12/10 10:17:21;;;;;;;;;;;;;;;-1.51;100.00;101037.53;5134945;27;20031;-83
2022/12/10 10:19:46;;;;;;;16.15;4.85;;;;;;;-1.49;100.00;101040.09;5136056;27;19911;-84
2022/12/10 10:22:11;;;;;;;19.48;5.85;;;;;;;-1.49;100.00;101040.09;5135305;27;20026;-82
2022/12/10 10:24:42;;;;;;;18.75;5.75;;;;;;;-1.44;100.00;101048.81;5134966;27;20033;-83
2022/12/10 10:27:29;;;;;;;19.98;5.90;;;;;;;-1.41;100.00;101043.81;5134882;27;20051;-81
2022/12/10 10:29:58;;;;;;;21.92;7.07;;;;;;;-1.43;100.00;101041.19;5135820;27;20027;-81
2022/12/10 10:32:26;;;;;;;23.15;7.80;;;;;;;-1.40;100.00;101048.09;5135212;27;20122;-82
2022/12/10 10:34:55;;;;;;;20.73;7.00;;;;;;;-1.44;100.00;101048.81;5135292;27;20027;-83
2022/12/10 10:37:26;;;;;;;20.83;6.63;;;;;;;-1.40;100.00;101035.34;5134753;27;20054;-82
2022/12/10 10:39:52;;;;;;;20.63;6.47;;;;;;;-1.40;100.00;101040.44;5134858;27;20112;-81
2022/12/10 10:42:28;;;;;;;20.50;6.93;;;;;;;-1.40;100.00;101037.91;5134483;27;20054;-81
2022/12/10 10:44:55;;;;;;;19.85;6.60;;;;;;;-1.43;100.00;101035.25;5134751;27;20097;-88
2022/12/10 10:47:29;;;;;;;20.58;7.00;;;;;;;-1.43;100.00;101033.56;5134874;27;20035;-81
2022/12/10 10:49:55;;;;;;;19.85;6.43;;;;;;;-1.35;100.00;101025.38;5141765;27;20106;-80
2022/12/10 10:52:20;;;;;;;22.77;7.63;;;;;;;-1.40;100.00;101027.72;5135909;27;20156;-81
2022/12/10 10:54:47;;;;;;;24.65;8.20;;;;;;;-1.42;100.00;101029.34;5134312;27;20019;-81
2022/12/10 10:57:23;;;;;;;23.98;8.45;;;;;;;-1.43;100.00;101031.03;5134726;27;20023;-81
2022/12/10 10:59:52;;;;;;;23.42;8.95;;;;;;;-1.41;100.00;101034.50;5134288;27;20055;-81
2022/12/10 11:02:20;;;;;;;23.60;8.00;;;;;;;-1.39;100.00;101037.09;5134742;27;20027;-80
2022/12/10 11:04:58;;;;;;;22.77;7.93;;;;;;;-1.39;100.00;101032.00;5134816;27;20460;-82
2022/12/10 11:07:45;;;;;;;23.55;8.57;;;;;;;-1.41;100.00;101019.22;5133891;27;20027;-82
2022/12/10 11:10:24;;;;;;;21.38;7.38;;;;;;;-1.36;100.00;101016.00;5134607;27;20023;-84
2022/12/10 11:12:56;;;;;;;24.55;7.63;;;;;;;-1.34;100.00;101016.88;5132430;27;20034;-82
2022/12/10 11:15:21;;;;;;;21.88;7.40;;;;;;;-1.34;100.00;101017.78;5134379;27;20570;-83
2022/12/10 11:18:08;;;;;;;26.15;9.20;;;;;;;-1.37;100.00;101010.00;5134016;27;20066;-82
2022/12/10 11:20:57;;;;;;;26.35;9.82;;;;;;;-1.33;100.00;101013.53;5133959;27;20027;-82
2022/12/10 11:23:27;;;;;;;27.55;9.73;;;;;;;-1.36;100.00;101018.53;5134324;27;20022;-83
2022/12/10 11:26:41;;;;;;;24.70;8.63;;;;;;;-1.33;100.00;101019.50;5134187;27;20049;-83
2022/12/10 11:29:37;;;;;;;25.60;8.63;;;;;;;-1.28;100.00;101023.06;5133562;27;20030;-83